This is the latest recevied weather packets stored in our database for station/object WI5KEY. If no packets are shown the sender has not sent any weather packets the latest 10 day(s).
| Time | Temp. | Humidity | Pressure | Rain* | Wind** | Luminosity | Snow |
|---|---|---|---|---|---|---|---|
| 1778027401 | 28.89° C | 76% | 1005.1 hPa | 0 mm | - | - | - |
| 1778026560 | 29.44° C | 75% | 1005 hPa | 0 mm | - | - | - |
| 1778026501 | 29.44° C | 75% | 1005.1 hPa | 0 mm | - | - | - |
| 1778025663 | 29.44° C | 75% | 1004.8 hPa | 0 mm | - | - | - |
| 1778024766 | 29.44° C | 74% | 1004.8 hPa | 0 mm | - | - | - |
| 1778023871 | 29.44° C | 74% | 1004.7 hPa | 0 mm | - | - | - |
| 1778022965 | 30° C | 72% | 1004.8 hPa | 0 mm | - | - | - |
| 1778022055 | 30° C | 72% | 1004.6 hPa | 0 mm | - | - | - |
| 1778021154 | 30° C | 72% | 1004.9 hPa | 0 mm | - | - | - |
| 1778020255 | 30.56° C | 71% | 1004.9 hPa | 0 mm | - | - | - |
| 1778019352 | 30.56° C | 70% | 1004.9 hPa | 0 mm | - | - | - |
| 1778018450 | 30.56° C | 70% | 1005.1 hPa | 0 mm | - | - | - |
| 1778017553 | 30.56° C | 72% | 1005.3 hPa | 0 mm | - | - | - |
| 1778016644 | 30° C | 71% | 1005.6 hPa | 0 mm | - | - | - |
| 1778015742 | 30° C | 71% | 1005.9 hPa | 0 mm | - | - | - |
| 1778014842 | 30° C | 72% | 1005.9 hPa | 0 mm | - | - | - |
| 1778013937 | 30° C | 72% | 1006.3 hPa | 0 mm | - | - | - |
| 1778013033 | 30° C | 72% | 1006.4 hPa | 0 mm | - | - | - |
| 1778012131 | 29.44° C | 72% | 1006.7 hPa | 0 mm | - | - | - |
| 1778011238 | 29.44° C | 73% | 1006.9 hPa | 0 mm | - | - | - |
| 1778010325 | 29.44° C | 75% | 1007 hPa | 0 mm | - | - | - |
| 1778009422 | 28.89° C | 74% | 1007.3 hPa | 0 mm | - | - | - |
| 1778008518 | 28.33° C | 76% | 1007.7 hPa | 0 mm | - | - | - |
| 1778007624 | 28.33° C | 75% | 1007.7 hPa | 0 mm | - | - | - |
| 1778006716 | 28.33° C | 76% | 1007.9 hPa | 0 mm | - | - | - |
* Rain latest hour (hover to see other rain measurements)
** Current wind speed in m/s (hover to see current wind gust speed)